Aviation Digital Data Service (ADDS)

Output produced by METARs form (2036 UTC 17 June 2019)
found at http://www.aviationweather.gov/metar/data/
 
Forecast for: OEJN (JEDDAH/KING ABDU, SA)
Text: TAF OEJN 171700Z 1718/1824 02008KT 9999 FEW040
Forecast period: 1800 UTC 17 June 2019 to 0600 UTC 18 June 2019
Forecast type: FROM: standard forecast or significant change
Winds: from the NNE (20 degrees) at 9 MPH (8 knots; 4.1 m/s)
Visibility: 6 or more miles 10+ km)
Ceiling: at least 12,000 feet AGL
Clouds: few clouds at 4000 feet AGL
Weather: no significant weather forecast for this period
Text: BECMG 1806/1808 33014KT
Forecast period: 0600 UTC 18 June 2019 to 0000 UTC 19 June 2019
Forecast type: BECOMING: Conditions expected to become as follows by 0800 UTC 18 June 2019
Winds: from the NNW (330 degrees) at 16 MPH (14 knots; 7.2 m/s)
Visibility: 6 or more miles 10+ km)
Ceiling: at least 12,000 feet AGL
Clouds: few clouds at 4000 feet AGL
Weather: no significant weather forecast for this period